Latest Weather Observations for Young

IDN60801

Issued at 7:05 pm EST Saturday 19 April 2014 (issued every 30 minutes, with the page automatically refreshed every 10 minutes)

About weather observations | Map of weather stations | Latest weather observations for NSW | Other Formats
Station Details ID: 073138 Name: YOUNG AIRPORT Lat: -34.25 Lon: 148.25 Height: 379.6 m
Data from the previous 72 hours. | See also: Recent months at Young
Date/Time
EST
Temp
°C
App
Temp
°C
Dew
Point
Rel
Hum
%
Delta-T
°C
Wind Press
QNH
hPa
Press
MSL
hPa
Rain
since 9 am
mm
Dir
 
Spd
km/h
Gust
km/h
Spd
kts
Gust
kts
19/07:00pm 7.4 5.1 5.0 85 1.1 SSW 6 7 3 4 1017.8 1017.3 0.0
19/06:30pm 8.3 5.6 5.4 82 1.3 WSW 9 11 5 6 1017.6 - 0.0
19/06:00pm 9.9 7.8 5.9 76 1.9 WSW 6 7 3 4 1017.1 1016.6 0.0
19/05:30pm 12.8 10.2 6.2 64 3.2 SW 9 11 5 6 1016.8 - 0.0
19/05:00pm 14.8 11.8 6.1 56 4.3 SW 11 13 6 7 1016.7 1016.2 0.0
19/04:30pm 15.8 13.6 6.3 53 4.7 SW 7 15 4 8 1016.5 - 0.0
19/04:00pm 16.1 13.7 7.1 55 4.5 SSW 9 13 5 7 1016.5 1016.0 0.0
19/03:30pm 15.9 12.7 6.9 55 4.5 SW 13 19 7 10 1016.5 - 0.0
19/03:00pm 14.7 12.4 7.5 62 3.6 SW 9 13 5 7 1016.8 1016.3 0.0
19/02:30pm 14.7 11.0 6.3 57 4.1 SW 15 22 8 12 1016.8 - 0.0
19/02:00pm 15.5 12.3 6.8 56 4.3 WSW 13 20 7 11 1016.8 1016.3 0.0
19/01:30pm 15.0 12.3 7.5 61 3.8 W 11 22 6 12 1016.9 - 0.0
19/01:00pm 14.0 12.9 8.4 69 2.9 N 4 9 2 5 1017.5 1016.9 0.0
19/12:30pm 14.2 12.1 8.4 68 3.0 N 9 15 5 8 1017.8 - 0.0
19/12:00pm 13.4 11.2 7.8 69 2.8 N 9 13 5 7 1018.3 1017.8 0.0
19/11:30am 12.7 10.9 8.0 73 2.4 SW 7 11 4 6 1018.6 - 0.0
19/11:00am 12.4 10.3 8.3 76 2.1 WSW 9 13 5 7 1018.9 1018.4 0.0
19/10:30am 11.5 10.2 7.8 78 1.8 NW 4 9 2 5 1018.8 - 0.0
19/10:00am 10.6 9.6 7.3 80 1.6 SW 2 7 1 4 1018.8 1018.3 0.0
19/09:30am 9.8 7.0 6.9 82 1.4 S 11 15 6 8 1018.8 - 0.0
19/09:00am 9.6 7.7 6.9 83 1.3 WSW 6 15 3 8 1018.7 1018.2 0.0
19/08:30am 9.0 6.7 5.9 81 1.4 NNW 7 11 4 6 1018.6 - 0.0
19/08:00am 7.8 5.8 6.1 89 0.8 N 6 7 3 4 1018.3 1017.8 0.0
19/07:30am 5.7 4.6 5.1 96 0.3 CALM 0 0 0 0 1017.8 - 0.0
19/07:00am 3.5 2.0 3.2 98 0.1 CALM 0 6 0 3 1017.6 1017.0 0.0
19/06:30am 2.7 0.7 2.3 97 0.2 WSW 2 7 1 4 1017.5 - 0.0
19/06:00am 3.3 0.7 3.0 98 0.1 ESE 6 9 3 5 1017.3 1016.8 0.0
19/05:30am 3.1 1.1 2.5 96 0.2 S 2 6 1 3 1017.2 - 0.0
19/05:00am 3.6 2.1 3.0 96 0.2 CALM 0 0 0 0 1016.8 1016.3 0.0
19/04:30am 4.2 2.7 3.2 93 0.4 CALM 0 0 0 0 1016.9 - 0.0
19/04:00am 5.4 4.2 4.5 94 0.4 CALM 0 0 0 0 1016.9 1016.4 0.0
19/03:30am 5.9 4.3 4.4 90 0.7 W 2 7 1 4 1016.7 - 0.0
19/03:00am 7.9 7.1 6.7 92 0.6 CALM 0 0 0 0 1016.7 1016.2 0.0
19/02:30am 9.1 8.2 7.7 91 0.7 W 2 9 1 5 1016.8 - 0.0
19/02:00am 9.2 7.5 7.6 90 0.8 NNE 6 9 3 5 1016.8 1016.3 0.0
19/01:30am 9.4 8.9 7.8 90 0.8 CALM 0 7 0 4 1016.9 - 0.0
19/01:00am 10.4 8.7 8.5 88 0.9 SSW 7 11 4 6 1016.9 1016.4 0.0
19/12:30am 11.6 9.8 9.5 87 1.1 SSW 9 13 5 7 1016.8 - 0.0
19/12:00am 10.7 9.2 9.1 90 0.8 S 7 9 4 5 1016.6 1016.1 0.0
 
Date/Time
EST
Temp
°C
App
Temp
°C
Dew
Point
Rel
Hum
%
Delta-T
°C
Wind Press
QNH
hPa
Press
MSL
hPa
Rain
since 9 am
mm
Dir
 
Spd
km/h
Gust
km/h
Spd
kts
Gust
kts
18/11:30pm 10.9 8.5 8.8 87 1.1 S 11 15 6 8 1016.5 - 0.0
18/11:00pm 12.6 10.6 10.1 85 1.3 SW 11 15 6 8 1016.7 1016.2 0.0
18/10:30pm 11.1 9.1 8.7 85 1.2 SW 9 13 5 7 1016.7 - 0.0
18/10:00pm 11.3 9.8 8.5 83 1.4 SSE 6 9 3 5 1016.8 1016.3 0.0
18/09:30pm 13.4 11.5 9.1 75 2.2 WSW 9 11 5 6 1016.6 - 0.0
18/09:00pm 13.9 12.0 9.1 73 2.5 WSW 9 11 5 6 1016.5 1016.0 0.0
18/08:30pm 14.4 12.9 9.0 70 2.8 WSW 7 9 4 5 1016.3 - 0.0
18/08:00pm 15.7 14.8 9.1 65 3.5 W 4 9 2 5 1016.1 1015.6 0.0
18/07:30pm 15.8 15.0 9.7 67 3.2 W 4 7 2 4 1015.9 - 0.0
18/07:00pm 16.0 15.2 9.7 66 3.3 W 4 7 2 4 1015.8 1015.3 0.0
18/06:30pm 16.8 15.5 9.2 61 4.0 WNW 6 9 3 5 1015.6 - 0.0
18/06:00pm 17.1 16.0 9.8 62 3.9 WNW 6 9 3 5 1015.5 1014.9 0.0
18/05:30pm 17.6 16.8 9.5 59 4.3 W 4 7 2 4 1015.5 - 0.0
18/05:00pm 18.3 17.0 9.9 58 4.5 WSW 7 13 4 7 1015.3 1014.7 0.0
18/04:30pm 19.2 17.5 9.9 55 5.1 WSW 9 17 5 9 1015.1 - 0.0
18/04:00pm 19.2 16.0 8.5 50 5.7 WSW 15 24 8 13 1015.1 1014.5 0.0
18/03:30pm 19.9 17.3 9.5 51 5.6 W 13 20 7 11 1015.0 - 0.0
18/03:00pm 19.2 15.4 7.6 47 6.0 W 17 28 9 15 1015.0 1014.4 0.0
18/02:30pm 20.7 16.6 8.7 46 6.4 W 20 32 11 17 1015.0 - 0.0
18/02:00pm 20.2 18.2 10.0 52 5.6 W 11 20 6 11 1015.2 1014.6 0.0
18/01:30pm 19.5 15.8 10.2 55 5.1 SW 20 28 11 15 1015.5 - 0.0
18/01:00pm 20.7 18.6 11.3 55 5.3 W 13 24 7 13 1015.9 1015.4 0.0
18/12:30pm 20.3 18.0 10.4 53 5.5 W 13 19 7 10 1016.3 - 0.0
18/12:00pm 18.9 16.5 10.2 57 4.7 WNW 13 20 7 11 1016.9 1016.4 0.0
18/11:30am 19.1 16.7 10.1 56 4.9 WNW 13 17 7 9 1017.5 - 0.0
18/11:00am 18.5 16.5 10.1 58 4.6 WNW 11 17 6 9 1017.9 1017.4 0.0
18/10:30am 17.9 15.9 11.5 66 3.6 NW 13 17 7 9 1018.3 - 0.0
18/10:00am 16.5 14.4 9.9 65 3.5 WNW 11 17 6 9 1018.6 1018.1 0.0
18/09:30am 14.2 13.3 10.6 79 1.9 NNE 6 7 3 4 1018.7 - 0.0
18/09:00am 11.7 11.7 9.9 89 0.9 CALM 0 6 0 3 1019.0 1018.5 0.0
18/08:30am 9.8 9.5 8.6 92 0.6 CALM 0 0 0 0 1018.9 - 0.0
18/08:00am 8.1 6.4 7.5 96 0.3 SSE 6 7 3 4 1019.0 1018.5 0.0
18/07:30am 6.3 4.2 6.0 98 0.1 S 6 7 3 4 1018.8 - 0.0
18/07:00am 4.3 1.8 4.0 98 0.1 S 6 7 3 4 1018.7 1018.2 0.0
18/06:30am 3.8 1.3 3.5 98 0.1 S 6 7 3 4 1018.5 - 0.0
18/06:00am 4.0 1.5 3.7 98 0.1 S 6 7 3 4 1018.3 1017.8 0.0
18/05:30am 4.0 1.5 3.7 98 0.1 SSW 6 7 3 4 1018.3 - 0.0
18/05:00am 4.3 1.8 4.0 98 0.1 SSW 6 7 3 4 1018.3 1017.8 0.0
18/04:30am 4.3 1.8 4.0 98 0.1 S 6 7 3 4 1018.4 - 0.0
18/04:00am 4.3 1.8 4.0 98 0.1 S 6 7 3 4 1018.5 1018.0 0.0
18/03:30am 4.3 1.8 3.9 97 0.2 SSW 6 7 3 4 1018.6 - 0.0
18/03:00am 4.7 2.1 4.4 98 0.1 SSW 7 9 4 5 1018.6 1018.1 0.0
18/02:30am 4.5 1.9 4.1 97 0.2 S 7 9 4 5 1018.8 - 0.0
18/02:00am 4.7 2.3 4.3 97 0.2 S 6 7 3 4 1019.0 1018.5 0.0
18/01:30am 5.1 2.8 4.8 98 0.1 S 6 7 3 4 1019.0 - 0.0
18/01:00am 5.6 3.2 5.3 98 0.1 SSW 7 9 4 5 1019.2 1018.7 0.0
18/12:30am 5.7 3.3 5.3 97 0.2 S 7 7 4 4 1019.5 - 0.0
18/12:00am 5.5 3.0 4.9 96 0.3 SSW 7 7 4 4 1019.8 1019.3 0.0
 
Date/Time
EST
Temp
°C
App
Temp
°C
Dew
Point
Rel
Hum
%
Delta-T
°C
Wind Press
QNH
hPa
Press
MSL
hPa
Rain
since 9 am
mm
Dir
 
Spd
km/h
Gust
km/h
Spd
kts
Gust
kts
17/11:30pm 6.1 3.8 5.7 97 0.2 S 7 7 4 4 1019.9 - 0.0
17/11:00pm 6.2 4.4 5.5 95 0.3 SSW 4 7 2 4 1020.1 1019.7 0.0
17/10:30pm 6.7 4.7 6.1 96 0.3 SSW 6 7 3 4 1020.3 - 0.0
17/10:00pm 6.9 4.7 6.3 96 0.3 S 7 7 4 4 1020.5 1020.0 0.0
17/09:30pm 7.3 5.1 6.4 94 0.4 S 7 7 4 4 1020.5 - 0.0
17/09:00pm 7.9 5.8 6.8 93 0.5 SSW 7 9 4 5 1020.3 1019.8 0.0
17/08:30pm 8.3 6.5 7.2 93 0.5 S 6 7 3 4 1020.4 - 0.0
17/08:00pm 8.8 6.9 7.6 92 0.6 S 7 7 4 4 1020.1 1019.7 0.0
17/07:30pm 9.8 8.2 8.2 90 0.8 SSW 6 7 3 4 1019.9 - 0.0
17/07:00pm 10.3 8.8 8.6 89 0.8 SSW 6 7 3 4 1019.7 1019.2 0.0
17/06:30pm 11.9 10.6 9.1 83 1.4 SSW 6 7 3 4 1019.5 - 0.0
17/06:00pm 13.7 13.6 9.6 76 2.1 CALM 0 0 0 0 1019.3 1018.8 0.0
17/05:30pm 16.6 14.8 9.3 62 3.9 SSW 9 9 5 5 1019.3 - 0.0
17/05:00pm 18.3 16.4 9.1 55 4.9 SSW 9 13 5 7 1019.1 1018.6 0.0
17/04:30pm 19.0 16.6 8.6 51 5.5 SSW 11 15 6 8 1019.0 - 0.0
17/04:00pm 19.5 17.0 9.7 53 5.3 SSW 13 17 7 9 1019.2 1018.7 0.0
17/03:30pm 19.5 16.4 8.8 50 5.7 SSW 15 19 8 10 1019.1 - 0.0
17/03:00pm 19.6 16.8 8.6 49 5.8 SSW 13 15 7 8 1019.2 1018.7 0.0
17/02:30pm 19.5 16.7 8.5 49 5.8 S 13 17 7 9 1019.2 - 0.0
17/02:00pm 18.9 16.3 9.4 54 5.1 SSW 13 19 7 10 1019.4 1018.9 0.0
17/01:30pm 19.6 17.3 10.6 56 5.0 SSW 13 24 7 13 1019.6 - 0.0
17/01:00pm 19.2 16.6 9.4 53 5.3 SW 13 20 7 11 1019.9 1019.4 0.0
17/12:30pm 19.6 16.7 9.8 53 5.3 SW 15 20 8 11 1020.3 - 0.0
17/12:00pm 18.9 15.9 9.4 54 5.1 S 15 20 8 11 1020.7 1020.2 0.0
17/11:30am 19.3 16.4 9.8 54 5.2 SSW 15 26 8 14 1021.1 - 0.0
17/11:00am 18.2 17.1 10.8 62 4.1 S 7 13 4 7 1021.4 1020.9 0.0
17/10:30am 17.3 17.1 10.4 64 3.7 SSE 2 7 1 4 1021.4 - 0.0
17/10:00am 16.0 15.9 10.7 71 2.9 SSE 2 7 1 4 1021.6 1021.1 0.0
17/09:30am 14.7 13.8 10.5 76 2.2 SE 6 7 3 4 1021.6 - 0.0
17/09:00am 13.2 12.7 10.6 84 1.4 S 4 7 2 4 1021.7 1021.2 0.0
17/08:30am 11.2 10.1 9.8 91 0.7 SSE 6 6 3 3 1021.6 - 0.0
17/08:00am 8.9 8.5 8.1 95 0.4 CALM 0 0 0 0 1021.4 1020.9 0.0
17/07:30am 6.8 6.0 6.5 98 0.1 CALM 0 0 0 0 1021.1 - 0.0
17/07:00am 5.1 3.9 4.8 98 0.1 CALM 0 0 0 0 1020.6 1020.1 0.0
17/06:30am 4.6 3.3 4.3 98 0.1 CALM 0 0 0 0 1020.0 - 0.0
17/06:00am 4.6 3.3 4.2 97 0.2 CALM 0 2 0 1 1019.5 1019.0 0.0
17/05:30am 4.8 2.4 4.5 98 0.1 S 6 6 3 3 1019.2 - 0.0
17/05:00am 4.6 2.0 4.2 97 0.2 S 7 7 4 4 1019.2 1018.7 0.0
17/04:30am 4.9 2.6 4.6 98 0.1 S 6 7 3 4 1019.1 - 0.0
17/04:00am 5.0 2.7 4.6 97 0.2 S 6 7 3 4 1019.0 1018.5 0.0
17/03:30am 5.2 3.3 4.8 97 0.2 S 4 7 2 4 1018.9 - 0.0
17/03:00am 5.3 3.0 4.9 97 0.2 S 6 7 3 4 1019.0 1018.5 0.0
17/02:30am 5.6 3.1 5.0 96 0.3 S 7 9 4 5 1019.1 - 0.0
17/02:00am 5.8 3.6 5.2 96 0.3 SSW 6 6 3 3 1019.4 1018.9 0.0
17/01:30am 6.1 4.0 5.7 97 0.2 S 6 7 3 4 1019.5 - 0.0
17/01:00am 6.2 3.9 5.8 97 0.2 S 7 9 4 5 1019.7 1019.2 0.0
17/12:30am 6.3 4.2 5.7 96 0.3 SSW 6 6 3 3 1019.7 - 0.0
17/12:00am 6.6 4.5 6.0 96 0.3 SSW 6 7 3 4 1019.8 1019.3 0.0
 
Date/Time
EST
Temp
°C
App
Temp
°C
Dew
Point
Rel
Hum
%
Delta-T
°C
Wind Press
QNH
hPa
Press
MSL
hPa
Rain
since 9 am
mm
Dir
 
Spd
km/h
Gust
km/h
Spd
kts
Gust
kts
16/11:30pm 6.9 4.9 6.3 96 0.3 SSW 6 7 3 4 1019.9 - 0.0
16/11:00pm 7.0 5.0 6.3 95 0.3 SSW 6 7 3 4 1020.0 1019.6 0.0
16/10:30pm 7.6 6.9 6.9 95 0.3 CALM 0 0 0 0 1020.1 - 0.0
16/10:00pm 7.6 5.7 6.7 94 0.4 S 6 7 3 4 1020.3 1019.8 0.0
16/09:30pm 8.3 6.4 7.5 95 0.4 S 7 7 4 4 1020.3 - 0.0
16/09:00pm 8.4 6.6 7.3 93 0.5 SSW 6 7 3 4 1020.0 1019.6 0.0
16/08:30pm 9.2 7.4 8.0 92 0.6 SSW 7 7 4 4 1019.8 - 0.0
16/08:00pm 9.8 8.2 8.2 90 0.8 S 6 7 3 4 1019.6 1019.1 0.0
16/07:30pm 10.2 8.5 8.5 89 0.8 SW 7 9 4 5 1019.4 - 0.0

Other Formats:

Comma delimited format used in spreadsheet applications
http://www.bom.gov.au/fwo/IDN60801/IDN60801.94712.axf

JavaScript Object Notation format (JSON) in row-major order
http://www.bom.gov.au/fwo/IDN60801/IDN60801.94712.json